Terminal Aerodrome Forecast
Issued by NWS

Home | Current Version | Previous Version | Graphics & Text | Print | Product List | Glossary On
Versions: 1 2 3 4 5 6 7 8 9 10 11 12 13 14
000
FTUS43 KBIS 171139
TAFDIK
TAF
KDIK 171139Z 1712/1812 27013KT P6SM SKC
     FM180300 24012KT P6SM SCT250 WS020/27040KT
     FM180900 25012KT P6SM BKN250=

USA.gov is the U.S. government's official web portal to all federal, state and local government web resources and services.